sensor_id;sensor_type;location;lat;lon;timestamp;pressure;altitude;pressure_sealevel;temperature;humidity
11692;BME280;33659;42.672;23.354;2023-08-31T00:02:03;69338.13;;;22.59;49.49
11692;BME280;33659;42.672;23.354;2023-08-31T00:04:30;69405.19;;;22.58;49.36
11692;BME280;33659;42.672;23.354;2023-08-31T00:06:56;69402.91;;;22.53;49.70
11692;BME280;33659;42.672;23.354;2023-08-31T00:09:23;69338.66;;;22.60;49.50
11692;BME280;33659;42.672;23.354;2023-08-31T00:11:50;69408.38;;;22.58;49.41
11692;BME280;33659;42.672;23.354;2023-08-31T00:14:17;69333.31;;;22.57;49.87
11692;BME280;33659;42.672;23.354;2023-08-31T00:16:45;69329.47;;;22.54;50.00
11692;BME280;33659;42.672;23.354;2023-08-31T00:19:13;69402.38;;;22.53;50.09
11692;BME280;33659;42.672;23.354;2023-08-31T00:21:40;69346.31;;;22.67;49.61
11692;BME280;33659;42.672;23.354;2023-08-31T00:24:07;69352.28;;;22.73;49.35
11692;BME280;33659;42.672;23.354;2023-08-31T00:26:35;69353.94;;;22.74;49.42
11692;BME280;33659;42.672;23.354;2023-08-31T00:29:08;69349.75;;;22.75;49.29
11692;BME280;33659;42.672;23.354;2023-08-31T00:31:36;69423.13;;;22.72;49.47
11692;BME280;33659;42.672;23.354;2023-08-31T00:34:04;69419.38;;;22.71;49.35
11692;BME280;33659;42.672;23.354;2023-08-31T00:36:32;69342.03;;;22.65;49.55
11692;BME280;33659;42.672;23.354;2023-08-31T00:39:02;69378.28;;;22.28;50.37
11692;BME280;33659;42.672;23.354;2023-08-31T00:41:31;69320.16;;;22.42;50.24
11692;BME280;33659;42.672;23.354;2023-08-31T00:43:58;69312.97;;;22.33;50.45
11692;BME280;33659;42.672;23.354;2023-08-31T00:46:25;69383.72;;;22.33;50.82
11692;BME280;33659;42.672;23.354;2023-08-31T00:48:53;69305.97;;;22.29;50.81
11692;BME280;33659;42.672;23.354;2023-08-31T00:51:21;69301.06;;;22.25;50.90
11692;BME280;33659;42.672;23.354;2023-08-31T00:53:48;69292.88;;;22.17;50.89
11692;BME280;33659;42.672;23.354;2023-08-31T00:56:19;69288.53;;;22.13;51.51
11692;BME280;33659;42.672;23.354;2023-08-31T00:58:45;69354.34;;;22.08;51.57
11692;BME280;33659;42.672;23.354;2023-08-31T01:01:21;69278.16;;;22.03;51.69
11692;BME280;33659;42.672;23.354;2023-08-31T01:03:53;69272.78;;;22.01;51.57
11692;BME280;33659;42.672;23.354;2023-08-31T01:06:32;69351.63;;;22.05;51.91
11692;BME280;33659;42.672;23.354;2023-08-31T01:09:07;69344.59;;;22.01;51.77
11692;BME280;33659;42.672;23.354;2023-08-31T01:11:45;69274.88;;;22.00;52.08
11692;BME280;33659;42.672;23.354;2023-08-31T01:14:17;69352.69;;;22.06;51.71
11692;BME280;33659;42.672;23.354;2023-08-31T01:16:48;69351.16;;;22.07;51.76
11692;BME280;33659;42.672;23.354;2023-08-31T01:19:27;69353.38;;;22.09;51.74
11692;BME280;33659;42.672;23.354;2023-08-31T01:22:03;69354.25;;;22.05;51.94
11692;BME280;33659;42.672;23.354;2023-08-31T01:24:34;69350.53;;;22.04;52.16
11692;BME280;33659;42.672;23.354;2023-08-31T01:27:01;69283.59;;;22.08;51.65
11692;BME280;33659;42.672;23.354;2023-08-31T01:29:29;69287.97;;;22.12;51.91
11692;BME280;33659;42.672;23.354;2023-08-31T01:31:57;69370.19;;;22.23;51.50
11692;BME280;33659;42.672;23.354;2023-08-31T01:34:24;69315.16;;;22.35;51.41
11692;BME280;33659;42.672;23.354;2023-08-31T01:36:56;69321.94;;;22.49;50.82
11692;BME280;33659;42.672;23.354;2023-08-31T01:39:32;69330.75;;;22.60;51.36
11692;BME280;33659;42.672;23.354;2023-08-31T01:42:03;69339.47;;;22.68;52.32
11692;BME280;33659;42.672;23.354;2023-08-31T01:44:34;69424.13;;;22.70;52.54
11692;BME280;33659;42.672;23.354;2023-08-31T01:47:03;69315.31;;;22.40;52.54
11692;BME280;33659;42.672;23.354;2023-08-31T01:49:36;69416.03;;;22.65;52.57
11692;BME280;33659;42.672;23.354;2023-08-31T01:52:03;69423.22;;;22.75;52.46
11692;BME280;33659;42.672;23.354;2023-08-31T01:54:30;69435.13;;;22.83;52.34
11692;BME280;33659;42.672;23.354;2023-08-31T01:56:56;69376.31;;;22.95;52.05
11692;BME280;33659;42.672;23.354;2023-08-31T01:59:25;69447.25;;;22.97;51.85
11692;BME280;33659;42.672;23.354;2023-08-31T02:01:52;69382.41;;;23.03;51.82
11692;BME280;33659;42.672;23.354;2023-08-31T02:04:18;69391.03;;;23.09;51.66
11692;BME280;33659;42.672;23.354;2023-08-31T02:06:45;69397.03;;;23.14;51.94
11692;BME280;33659;42.672;23.354;2023-08-31T02:09:13;69402.88;;;23.15;51.96
11692;BME280;33659;42.672;23.354;2023-08-31T02:11:40;69395.97;;;23.13;52.03
11692;BME280;33659;42.672;23.354;2023-08-31T02:14:06;69466.91;;;23.15;51.94
11692;BME280;33659;42.672;23.354;2023-08-31T02:16:35;69399.75;;;23.17;51.43
11692;BME280;33659;42.672;23.354;2023-08-31T02:19:02;69392.13;;;23.10;51.24
11692;BME280;33659;42.672;23.354;2023-08-31T02:21:28;69460.81;;;23.07;50.82
11692;BME280;33659;42.672;23.354;2023-08-31T02:23:55;69378.97;;;22.95;51.10
11692;BME280;33659;42.672;23.354;2023-08-31T02:26:22;69436.75;;;22.85;50.76
11692;BME280;33659;42.672;23.354;2023-08-31T02:28:49;69424.22;;;22.73;50.66
11692;BME280;33659;42.672;23.354;2023-08-31T02:31:17;69340.84;;;22.62;50.71
11692;BME280;33659;42.672;23.354;2023-08-31T02:33:45;69398.03;;;22.49;51.38
11692;BME280;33659;42.672;23.354;2023-08-31T02:36:12;69331.50;;;22.51;51.01
11692;BME280;33659;42.672;23.354;2023-08-31T02:38:39;69397.00;;;22.50;51.03
11692;BME280;33659;42.672;23.354;2023-08-31T02:41:06;69388.28;;;22.42;51.27
11692;BME280;33659;42.672;23.354;2023-08-31T02:43:32;69383.38;;;22.37;51.38
11692;BME280;33659;42.672;23.354;2023-08-31T02:46:00;69390.94;;;22.42;51.15
11692;BME280;33659;42.672;23.354;2023-08-31T02:48:27;69385.00;;;22.39;51.67
11692;BME280;33659;42.672;23.354;2023-08-31T02:50:57;69318.97;;;22.39;51.54
11692;BME280;33659;42.672;23.354;2023-08-31T02:53:26;69321.78;;;22.44;51.73
11692;BME280;33659;42.672;23.354;2023-08-31T02:55:53;69320.84;;;22.48;51.92
11692;BME280;33659;42.672;23.354;2023-08-31T02:58:19;69330.50;;;22.52;51.37
11692;BME280;33659;42.672;23.354;2023-08-31T03:00:46;69406.28;;;22.59;51.21
11692;BME280;33659;42.672;23.354;2023-08-31T03:03:13;69404.03;;;22.54;51.25
11692;BME280;33659;42.672;23.354;2023-08-31T03:05:40;69349.56;;;22.70;51.44
11692;BME280;33659;42.672;23.354;2023-08-31T03:08:09;69353.41;;;22.74;51.79
11692;BME280;33659;42.672;23.354;2023-08-31T03:10:36;69348.13;;;22.74;51.68
11692;BME280;33659;42.672;23.354;2023-08-31T03:13:03;69368.69;;;22.88;51.66
11692;BME280;33659;42.672;23.354;2023-08-31T03:15:32;69361.03;;;22.81;51.09
11692;BME280;33659;42.672;23.354;2023-08-31T03:17:59;69360.94;;;22.93;50.72
11692;BME280;33659;42.672;23.354;2023-08-31T03:20:25;69376.88;;;22.95;50.10
11692;BME280;33659;42.672;23.354;2023-08-31T03:22:52;69371.94;;;22.91;50.40
11692;BME280;33659;42.672;23.354;2023-08-31T03:25:20;69365.38;;;22.85;50.29
11692;BME280;33659;42.672;23.354;2023-08-31T03:27:47;69433.03;;;22.84;50.30
11692;BME280;33659;42.672;23.354;2023-08-31T03:30:14;69350.66;;;22.71;50.20
11692;BME280;33659;42.672;23.354;2023-08-31T03:32:41;69414.94;;;22.64;50.58
11692;BME280;33659;42.672;23.354;2023-08-31T03:35:08;69410.56;;;22.60;50.46
11692;BME280;33659;42.672;23.354;2023-08-31T03:37:35;69333.22;;;22.55;51.50
11692;BME280;33659;42.672;23.354;2023-08-31T03:40:02;69338.66;;;22.60;51.90
11692;BME280;33659;42.672;23.354;2023-08-31T03:42:33;69334.84;;;22.56;53.28
11692;BME280;33659;42.672;23.354;2023-08-31T03:45:00;69321.31;;;22.46;53.63
11692;BME280;33659;42.672;23.354;2023-08-31T03:47:27;69380.56;;;22.32;53.97
11692;BME280;33659;42.672;23.354;2023-08-31T03:49:54;69369.72;;;22.25;54.10
11692;BME280;33659;42.672;23.354;2023-08-31T03:52:20;69362.09;;;22.17;54.53
11692;BME280;33659;42.672;23.354;2023-08-31T03:54:48;69355.44;;;22.09;55.01
11692;BME280;33659;42.672;23.354;2023-08-31T03:57:16;69342.97;;;22.00;55.58
11692;BME280;33659;42.672;23.354;2023-08-31T03:59:44;69259.06;;;21.85;55.82
11692;BME280;33659;42.672;23.354;2023-08-31T04:02:11;69327.59;;;21.83;56.06
11692;BME280;33659;42.672;23.354;2023-08-31T04:04:38;69332.44;;;21.85;55.94
11692;BME280;33659;42.672;23.354;2023-08-31T04:07:05;69256.34;;;21.83;56.09
11692;BME280;33659;42.672;23.354;2023-08-31T04:09:32;69263.41;;;21.89;56.09
11692;BME280;33659;42.672;23.354;2023-08-31T04:11:59;69335.88;;;21.93;55.91
11692;BME280;33659;42.672;23.354;2023-08-31T04:14:26;69274.41;;;22.02;55.98
11692;BME280;33659;42.672;23.354;2023-08-31T04:16:54;69280.31;;;22.05;55.82
11692;BME280;33659;42.672;23.354;2023-08-31T04:19:20;69280.53;;;22.10;55.13
11692;BME280;33659;42.672;23.354;2023-08-31T04:21:47;69362.00;;;22.15;54.91
11692;BME280;33659;42.672;23.354;2023-08-31T04:24:14;69296.69;;;22.21;54.74
11692;BME280;33659;42.672;23.354;2023-08-31T04:26:41;69373.00;;;22.28;54.66
11692;BME280;33659;42.672;23.354;2023-08-31T04:29:09;69307.13;;;22.33;54.64
11692;BME280;33659;42.672;23.354;2023-08-31T04:31:35;69310.88;;;22.34;54.50
11692;BME280;33659;42.672;23.354;2023-08-31T04:34:04;69313.13;;;22.38;54.83
11692;BME280;33659;42.672;23.354;2023-08-31T04:36:32;69328.22;;;22.48;54.61
11692;BME280;33659;42.672;23.354;2023-08-31T04:38:59;69399.13;;;22.50;54.17
11692;BME280;33659;42.672;23.354;2023-08-31T04:41:26;69402.91;;;22.53;53.65
11692;BME280;33659;42.672;23.354;2023-08-31T04:43:52;69330.03;;;22.54;53.65
11692;BME280;33659;42.672;23.354;2023-08-31T04:46:19;69389.91;;;22.43;53.68
11692;BME280;33659;42.672;23.354;2023-08-31T04:48:46;69375.63;;;22.28;54.33
11692;BME280;33659;42.672;23.354;2023-08-31T04:51:30;69277.03;;;22.02;54.97
11692;BME280;33659;42.672;23.354;2023-08-31T04:53:57;69351.06;;;22.05;55.28
11692;BME280;33659;42.672;23.354;2023-08-31T04:56:24;69358.72;;;22.12;55.09
11692;BME280;33659;42.672;23.354;2023-08-31T04:58:51;69296.69;;;22.21;54.59
11692;BME280;33659;42.672;23.354;2023-08-31T05:01:18;69293.13;;;22.25;54.37
11692;BME280;33659;42.672;23.354;2023-08-31T05:03:45;69287.97;;;22.12;53.84
11692;BME280;33659;42.672;23.354;2023-08-31T05:06:11;69353.16;;;22.04;54.29
11692;BME280;33659;42.672;23.354;2023-08-31T05:08:39;69340.69;;;21.95;54.63
11692;BME280;33659;42.672;23.354;2023-08-31T05:11:06;69261.78;;;21.88;55.33
11692;BME280;33659;42.672;23.354;2023-08-31T05:13:34;69257.53;;;21.86;55.80
11692;BME280;33659;42.672;23.354;2023-08-31T05:16:00;69330.88;;;21.86;56.08
11692;BME280;33659;42.672;23.354;2023-08-31T05:18:28;69257.59;;;21.89;55.94
11692;BME280;33659;42.672;23.354;2023-08-31T05:20:54;69281.97;;;22.07;55.14
11692;BME280;33659;42.672;23.354;2023-08-31T05:23:21;69294.53;;;22.19;54.32
11692;BME280;33659;42.672;23.354;2023-08-31T05:25:49;69393.09;;;22.44;53.87
11692;BME280;33659;42.672;23.354;2023-08-31T05:28:15;69411.19;;;22.63;53.99
11692;BME280;33659;42.672;23.354;2023-08-31T05:30:49;69363.22;;;22.83;53.37
11692;BME280;33659;42.672;23.354;2023-08-31T05:33:16;69374.94;;;23.01;52.85
11692;BME280;33659;42.672;23.354;2023-08-31T05:35:43;69398.13;;;23.15;52.22
11692;BME280;33659;42.672;23.354;2023-08-31T05:38:10;69407.94;;;23.24;52.00
11692;BME280;33659;42.672;23.354;2023-08-31T05:40:37;69427.13;;;23.45;51.13
11692;BME280;33659;42.672;23.354;2023-08-31T05:43:05;69513.78;;;23.57;49.37
11692;BME280;33659;42.672;23.354;2023-08-31T05:45:32;69452.69;;;23.66;49.76
11692;BME280;33659;42.672;23.354;2023-08-31T05:47:59;69457.06;;;23.70;49.81
11692;BME280;33659;42.672;23.354;2023-08-31T05:50:26;69467.97;;;23.81;49.65
11692;BME280;33659;42.672;23.354;2023-08-31T05:52:53;69478.91;;;23.91;49.39
11692;BME280;33659;42.672;23.354;2023-08-31T05:55:20;69556.97;;;23.97;49.21
11692;BME280;33659;42.672;23.354;2023-08-31T05:57:47;69553.13;;;23.93;49.19
11692;BME280;33659;42.672;23.354;2023-08-31T06:00:16;69546.66;;;23.90;49.61
11692;BME280;33659;42.672;23.354;2023-08-31T06:02:44;69478.34;;;23.90;49.24
11692;BME280;33659;42.672;23.354;2023-08-31T06:05:11;69471.81;;;23.84;49.60
11692;BME280;33659;42.672;23.354;2023-08-31T06:07:41;69446.94;;;23.68;49.39
11692;BME280;33659;42.672;23.354;2023-08-31T06:10:09;69492.03;;;23.39;49.74
11692;BME280;33659;42.672;23.354;2023-08-31T06:12:36;69429.47;;;23.52;51.03
11692;BME280;33659;42.672;23.354;2023-08-31T06:15:03;69438.03;;;23.55;52.38
11692;BME280;33659;42.672;23.354;2023-08-31T06:17:32;69529.09;;;23.71;52.64
11692;BME280;33659;42.672;23.354;2023-08-31T06:20:00;69549.84;;;23.90;52.15
11692;BME280;33659;42.672;23.354;2023-08-31T06:22:27;69561.31;;;24.01;51.72
11692;BME280;33659;42.672;23.354;2023-08-31T06:24:54;69503.97;;;24.14;51.81
11692;BME280;33659;42.672;23.354;2023-08-31T06:27:21;69504.38;;;24.27;51.74
11692;BME280;33659;42.672;23.354;2023-08-31T06:29:48;69531.84;;;24.40;51.15
11692;BME280;33659;42.672;23.354;2023-08-31T06:32:15;69543.25;;;24.48;50.34
11692;BME280;33659;42.672;23.354;2023-08-31T06:34:44;69549.94;;;24.59;50.25
11692;BME280;33659;42.672;23.354;2023-08-31T06:37:10;69561.25;;;24.65;49.99
11692;BME280;33659;42.672;23.354;2023-08-31T06:39:37;69567.34;;;24.73;48.71
11692;BME280;33659;42.672;23.354;2023-08-31T06:42:04;69632.38;;;24.67;48.19
11692;BME280;33659;42.672;23.354;2023-08-31T06:44:31;69549.16;;;24.69;48.03
11692;BME280;33659;42.672;23.354;2023-08-31T06:46:58;69549.31;;;24.56;48.51
11692;BME280;33659;42.672;23.354;2023-08-31T06:49:25;69553.59;;;24.58;48.49
11692;BME280;33659;42.672;23.354;2023-08-31T06:51:54;69542.63;;;24.63;48.67
11692;BME280;33659;42.672;23.354;2023-08-31T06:54:20;69552.53;;;24.74;48.38
11692;BME280;33659;42.672;23.354;2023-08-31T06:56:47;69579.34;;;24.84;47.07
11692;BME280;33659;42.672;23.354;2023-08-31T06:59:14;69586.97;;;24.92;46.73
11692;BME280;33659;42.672;23.354;2023-08-31T07:01:41;69592.91;;;24.95;47.84
11692;BME280;33659;42.672;23.354;2023-08-31T07:04:07;69596.81;;;25.01;47.53
11692;BME280;33659;42.672;23.354;2023-08-31T07:06:35;69596.34;;;25.03;47.55
11692;BME280;33659;42.672;23.354;2023-08-31T07:09:03;69577.69;;;24.83;47.08
11692;BME280;33659;42.672;23.354;2023-08-31T07:11:31;69607.19;;;25.10;48.90
11692;BME280;33659;42.672;23.354;2023-08-31T07:13:58;69614.38;;;25.20;47.53
11692;BME280;33659;42.672;23.354;2023-08-31T07:16:25;69611.75;;;25.20;47.34
11692;BME280;33659;42.672;23.354;2023-08-31T07:18:52;69618.13;;;25.21;46.57
11692;BME280;33659;42.672;23.354;2023-08-31T07:21:19;69694.06;;;25.22;46.13
11692;BME280;33659;42.672;23.354;2023-08-31T07:23:45;69692.50;;;25.23;45.43
11692;BME280;33659;42.672;23.354;2023-08-31T07:26:15;69595.59;;;25.12;45.47
11692;BME280;33659;42.672;23.354;2023-08-31T07:28:42;69603.41;;;25.07;45.15
11692;BME280;33659;42.672;23.354;2023-08-31T07:31:09;69607.13;;;25.08;45.10
11692;BME280;33659;42.672;23.354;2023-08-31T07:33:36;69606.66;;;25.10;44.91
11692;BME280;33659;42.672;23.354;2023-08-31T07:36:04;69610.94;;;25.11;44.79
11692;BME280;33659;42.672;23.354;2023-08-31T07:38:32;69607.19;;;25.10;44.84
11692;BME280;33659;42.672;23.354;2023-08-31T07:41:00;69604.09;;;25.13;44.78
11692;BME280;33659;42.672;23.354;2023-08-31T07:43:28;69676.03;;;25.05;44.92
11692;BME280;33659;42.672;23.354;2023-08-31T07:45:56;69594.78;;;25.04;44.88
11692;BME280;33659;42.672;23.354;2023-08-31T07:48:23;69594.78;;;25.04;45.08
11692;BME280;33659;42.672;23.354;2023-08-31T07:50:50;69593.53;;;24.98;45.74
11692;BME280;33659;42.672;23.354;2023-08-31T07:53:21;69654.78;;;24.88;46.31
11692;BME280;33659;42.672;23.354;2023-08-31T07:55:52;69579.88;;;24.85;45.99
11692;BME280;33659;42.672;23.354;2023-08-31T07:58:20;69578.78;;;24.84;45.82
11692;BME280;33659;42.672;23.354;2023-08-31T08:00:48;69659.63;;;24.90;45.70
11692;BME280;33659;42.672;23.354;2023-08-31T08:03:15;69661.34;;;24.94;45.71
11692;BME280;33659;42.672;23.354;2023-08-31T08:05:42;69592.91;;;24.95;45.54
11692;BME280;33659;42.672;23.354;2023-08-31T08:08:09;69576.84;;;24.90;45.27
11692;BME280;33659;42.672;23.354;2023-08-31T08:10:36;69581.66;;;24.92;45.35
11692;BME280;33659;42.672;23.354;2023-08-31T08:13:03;69593.53;;;24.98;44.55
11692;BME280;33659;42.672;23.354;2023-08-31T08:15:30;69593.06;;;25.00;44.51
11692;BME280;33659;42.672;23.354;2023-08-31T08:18:01;69606.03;;;25.07;43.74
11692;BME280;33659;42.672;23.354;2023-08-31T08:20:28;69591.91;;;24.96;43.95
11692;BME280;33659;42.672;23.354;2023-08-31T08:22:55;69602.31;;;25.06;44.12
11692;BME280;33659;42.672;23.354;2023-08-31T08:25:23;69609.41;;;25.13;44.01
11692;BME280;33659;42.672;23.354;2023-08-31T08:27:50;69619.16;;;25.19;43.63
11692;BME280;33659;42.672;23.354;2023-08-31T08:30:16;69610.78;;;25.24;42.34
11692;BME280;33659;42.672;23.354;2023-08-31T08:32:44;69615.56;;;25.23;42.47
11692;BME280;33659;42.672;23.354;2023-08-31T08:35:12;69612.66;;;25.16;41.65
11692;BME280;33659;42.672;23.354;2023-08-31T08:37:39;69607.38;;;25.16;40.10
11692;BME280;33659;42.672;23.354;2023-08-31T08:40:07;69613.22;;;25.16;40.85
11692;BME280;33659;42.672;23.354;2023-08-31T08:42:42;69616.50;;;25.19;41.43
11692;BME280;33659;42.672;23.354;2023-08-31T08:45:12;69627.41;;;25.29;40.39
11692;BME280;33659;42.672;23.354;2023-08-31T08:47:40;69634.44;;;25.33;39.59
11692;BME280;33659;42.672;23.354;2023-08-31T08:50:09;69618.69;;;25.21;39.32
11692;BME280;33659;42.672;23.354;2023-08-31T08:52:39;69614.22;;;25.15;38.45
11692;BME280;33659;42.672;23.354;2023-08-31T08:55:06;69615.56;;;25.23;38.89
11692;BME280;33659;42.672;23.354;2023-08-31T08:57:34;69674.38;;;25.04;36.78
11692;BME280;33659;42.672;23.354;2023-08-31T09:00:01;69606.13;;;25.09;36.75
11692;BME280;33659;42.672;23.354;2023-08-31T09:02:28;69673.47;;;25.08;35.39
11692;BME280;33659;42.672;23.354;2023-08-31T09:04:55;69689.69;;;25.18;34.89
11692;BME280;33659;42.672;23.354;2023-08-31T09:07:23;69685.41;;;25.17;35.38
11692;BME280;33659;42.672;23.354;2023-08-31T09:09:52;69620.31;;;25.23;36.10
11692;BME280;33659;42.672;23.354;2023-08-31T09:12:22;69622.66;;;25.30;36.21
11692;BME280;33659;42.672;23.354;2023-08-31T09:14:59;69630.75;;;25.35;35.89
11692;BME280;33659;42.672;23.354;2023-08-31T09:17:26;69628.50;;;25.30;36.22
11692;BME280;33659;42.672;23.354;2023-08-31T09:19:59;69626.94;;;25.31;35.73
11692;BME280;33659;42.672;23.354;2023-08-31T09:22:28;69713.28;;;25.43;36.32
11692;BME280;33659;42.672;23.354;2023-08-31T09:24:57;69720.41;;;25.49;36.27
11692;BME280;33659;42.672;23.354;2023-08-31T09:27:23;69727.50;;;25.56;36.36
11692;BME280;33659;42.672;23.354;2023-08-31T09:29:50;69736.72;;;25.62;37.05
11692;BME280;33659;42.672;23.354;2023-08-31T09:32:17;69735.16;;;25.63;37.26
11692;BME280;33659;42.672;23.354;2023-08-31T09:34:44;69735.63;;;25.61;37.38
11692;BME280;33659;42.672;23.354;2023-08-31T09:37:11;69741.09;;;25.66;37.17
11692;BME280;33659;42.672;23.354;2023-08-31T09:39:39;69656.81;;;25.72;36.81
11692;BME280;33659;42.672;23.354;2023-08-31T09:42:07;69680.81;;;25.74;36.62
11692;BME280;33659;42.672;23.354;2023-08-31T09:44:40;69685.81;;;25.81;36.39
11692;BME280;33659;42.672;23.354;2023-08-31T09:47:07;69681.44;;;25.77;36.90
11692;BME280;33659;42.672;23.354;2023-08-31T09:49:40;69682.06;;;25.80;37.31
11692;BME280;33659;42.672;23.354;2023-08-31T09:52:09;69695.72;;;25.93;36.79
11692;BME280;33659;42.672;23.354;2023-08-31T09:54:37;69766.44;;;25.95;37.18
11692;BME280;33659;42.672;23.354;2023-08-31T09:57:04;69696.56;;;26.04;37.17
11692;BME280;33659;42.672;23.354;2023-08-31T09:59:33;69699.97;;;26.12;36.88
11692;BME280;33659;42.672;23.354;2023-08-31T10:02:01;69712.13;;;26.08;36.78
11692;BME280;33659;42.672;23.354;2023-08-31T10:04:29;69695.47;;;26.03;36.11
11692;BME280;33659;42.672;23.354;2023-08-31T10:06:58;69695.09;;;25.90;36.04
11692;BME280;33659;42.672;23.354;2023-08-31T10:09:25;69697.34;;;25.95;35.58
11692;BME280;33659;42.672;23.354;2023-08-31T10:11:53;69698.91;;;25.93;35.57
11692;BME280;33659;42.672;23.354;2023-08-31T10:14:21;69677.91;;;25.84;35.80
11692;BME280;33659;42.672;23.354;2023-08-31T10:16:50;69670.41;;;25.82;35.42
11692;BME280;33659;42.672;23.354;2023-08-31T10:19:18;69686.97;;;25.85;35.30
11692;BME280;33659;42.672;23.354;2023-08-31T10:21:49;69769.56;;;25.92;34.68
11692;BME280;33659;42.672;23.354;2023-08-31T10:24:16;69700.16;;;26.00;34.31
11692;BME280;33659;42.672;23.354;2023-08-31T10:26:42;69719.69;;;26.13;34.26
11692;BME280;33659;42.672;23.354;2023-08-31T10:29:26;69798.00;;;26.19;33.70
11692;BME280;33659;42.672;23.354;2023-08-31T10:32:00;69734.66;;;26.34;33.67
11692;BME280;33659;42.672;23.354;2023-08-31T10:34:36;69721.84;;;26.32;33.56
11692;BME280;33659;42.672;23.354;2023-08-31T10:37:19;69744.19;;;26.33;33.11
11692;BME280;33659;42.672;23.354;2023-08-31T10:39:47;69737.16;;;26.29;33.01
11692;BME280;33659;42.672;23.354;2023-08-31T10:42:14;69732.88;;;26.28;33.33
11692;BME280;33659;42.672;23.354;2023-08-31T10:44:42;69744.34;;;26.38;33.88
11692;BME280;33659;42.672;23.354;2023-08-31T10:47:10;69749.28;;;26.43;34.04
11692;BME280;33659;42.672;23.354;2023-08-31T10:49:38;69742.78;;;26.39;34.02
11692;BME280;33659;42.672;23.354;2023-08-31T10:52:18;69739.56;;;26.39;34.53
11692;BME280;33659;42.672;23.354;2023-08-31T10:54:46;69723.41;;;26.31;34.39
11692;BME280;33659;42.672;23.354;2023-08-31T10:57:13;69742.16;;;26.36;34.72
11692;BME280;33659;42.672;23.354;2023-08-31T10:59:43;69737.03;;;26.41;34.53
11692;BME280;33659;42.672;23.354;2023-08-31T11:02:27;69747.47;;;26.54;33.64
11692;BME280;33659;42.672;23.354;2023-08-31T11:04:55;69745.91;;;26.55;33.86
11692;BME280;33659;42.672;23.354;2023-08-31T11:07:24;69774.34;;;26.64;34.41
11692;BME280;33659;42.672;23.354;2023-08-31T11:09:51;69779.34;;;26.71;33.54
11692;BME280;33659;42.672;23.354;2023-08-31T11:12:22;69756.22;;;26.62;33.90
11692;BME280;33659;42.672;23.354;2023-08-31T11:14:49;69748.47;;;26.52;34.30
11692;BME280;33659;42.672;23.354;2023-08-31T11:17:17;69738.88;;;26.33;33.51
11692;BME280;33659;42.672;23.354;2023-08-31T11:19:44;69718.41;;;26.24;34.13
11692;BME280;33659;42.672;23.354;2023-08-31T11:22:11;69731.16;;;26.24;35.33
11692;BME280;33659;42.672;23.354;2023-08-31T11:24:38;69729.34;;;26.34;36.24
11692;BME280;33659;42.672;23.354;2023-08-31T11:27:07;69765.13;;;26.58;35.90
11692;BME280;33659;42.672;23.354;2023-08-31T11:29:37;69844.59;;;26.65;34.99
11692;BME280;33659;42.672;23.354;2023-08-31T11:32:04;69774.44;;;26.66;35.46
11692;BME280;33659;42.672;23.354;2023-08-31T11:34:33;69776.63;;;26.68;35.28
11692;BME280;33659;42.672;23.354;2023-08-31T11:37:00;69778.31;;;26.72;35.25
11692;BME280;33659;42.672;23.354;2023-08-31T11:39:27;69786.94;;;26.76;35.05
11692;BME280;33659;42.672;23.354;2023-08-31T11:41:55;69786.44;;;26.78;34.89
11692;BME280;33659;42.672;23.354;2023-08-31T11:44:22;69788.00;;;26.77;34.45
11692;BME280;33659;42.672;23.354;2023-08-31T11:46:49;69844.59;;;26.65;34.88
11692;BME280;33659;42.672;23.354;2023-08-31T11:49:18;69764.94;;;26.70;34.87
11692;BME280;33659;42.672;23.354;2023-08-31T11:51:47;69787.47;;;26.76;34.90
11692;BME280;33659;42.672;23.354;2023-08-31T11:54:17;69808.88;;;26.98;36.54
11692;BME280;33659;42.672;23.354;2023-08-31T11:56:44;69912.97;;;27.26;36.52
11692;BME280;33659;42.672;23.354;2023-08-31T11:59:16;69835.28;;;27.28;36.43
11692;BME280;33659;42.672;23.354;2023-08-31T12:01:45;69860.75;;;27.44;36.46
11692;BME280;33659;42.672;23.354;2023-08-31T12:04:14;69873.69;;;27.69;36.08
11692;BME280;33659;42.672;23.354;2023-08-31T12:06:42;69881.56;;;27.84;35.63
11692;BME280;33659;42.672;23.354;2023-08-31T12:09:13;69894.91;;;27.84;35.49
11692;BME280;33659;42.672;23.354;2023-08-31T12:11:40;69896.94;;;27.80;35.24
11692;BME280;33659;42.672;23.354;2023-08-31T12:14:18;69878.06;;;27.73;35.31
11692;BME280;33659;42.672;23.354;2023-08-31T12:16:45;69855.91;;;27.62;35.36
11692;BME280;33659;42.672;23.354;2023-08-31T12:19:12;69860.75;;;27.44;35.77
11692;BME280;33659;42.672;23.354;2023-08-31T12:21:39;69843.00;;;27.38;35.21
11692;BME280;33659;42.672;23.354;2023-08-31T12:24:06;69872.22;;;27.55;35.40
11692;BME280;33659;42.672;23.354;2023-08-31T12:26:34;69912.72;;;27.93;34.21
11692;BME280;33659;42.672;23.354;2023-08-31T12:29:01;69921.97;;;28.19;34.19
11692;BME280;33659;42.672;23.354;2023-08-31T12:31:29;69961.53;;;28.41;33.91
11692;BME280;33659;42.672;23.354;2023-08-31T12:33:56;69973.28;;;28.62;33.55
11692;BME280;33659;42.672;23.354;2023-08-31T12:36:23;69995.16;;;28.82;33.55
11692;BME280;33659;42.672;23.354;2023-08-31T12:38:50;69991.41;;;28.81;33.55
11692;BME280;33659;42.672;23.354;2023-08-31T12:41:16;69958.56;;;28.50;33.80
11692;BME280;33659;42.672;23.354;2023-08-31T12:43:46;69900.22;;;28.03;34.35
11692;BME280;33659;42.672;23.354;2023-08-31T12:46:13;69884.16;;;27.81;35.40
11692;BME280;33659;42.672;23.354;2023-08-31T12:48:40;69874.66;;;27.65;35.03
11692;BME280;33659;42.672;23.354;2023-08-31T12:51:07;69860.56;;;27.57;35.33
11692;BME280;33659;42.672;23.354;2023-08-31T12:53:38;69831.56;;;27.30;35.62
11692;BME280;33659;42.672;23.354;2023-08-31T12:56:06;69820.50;;;27.14;35.69